sensor_id;sensor_type;location;lat;lon;timestamp;pressure;altitude;pressure_sealevel;temperature;humidity
59531;BME280;45349;48.692;8.186;2023-06-10T00:00:04;98204.75;;;17.90;58.87
59531;BME280;45349;48.692;8.186;2023-06-10T00:02:37;98197.28;;;17.80;58.76
59531;BME280;45349;48.692;8.186;2023-06-10T00:05:04;98200.94;;;17.79;60.67
59531;BME280;45349;48.692;8.186;2023-06-10T00:07:34;98199.91;;;17.74;59.42
59531;BME280;45349;48.692;8.186;2023-06-10T00:10:06;98200.53;;;17.76;60.19
59531;BME280;45349;48.692;8.186;2023-06-10T00:12:33;98190.00;;;17.69;59.72
59531;BME280;45349;48.692;8.186;2023-06-10T00:15:03;98197.50;;;17.72;59.98
59531;BME280;45349;48.692;8.186;2023-06-10T00:17:29;98198.72;;;17.69;61.29
59531;BME280;45349;48.692;8.186;2023-06-10T00:19:57;98197.09;;;17.75;60.93
59531;BME280;45349;48.692;8.186;2023-06-10T00:22:24;98200.16;;;17.72;60.54
59531;BME280;45349;48.692;8.186;2023-06-10T00:24:56;98195.25;;;17.76;60.95
59531;BME280;45349;48.692;8.186;2023-06-10T00:27:23;98192.84;;;17.67;61.32
59531;BME280;45349;48.692;8.186;2023-06-10T00:29:49;98198.13;;;17.67;61.87
59531;BME280;45349;48.692;8.186;2023-06-10T00:32:19;98195.06;;;17.70;61.15
59531;BME280;45349;48.692;8.186;2023-06-10T00:34:47;98199.91;;;17.74;61.83
59531;BME280;45349;48.692;8.186;2023-06-10T00:37:14;98197.88;;;17.82;61.50
59531;BME280;45349;48.692;8.186;2023-06-10T00:39:41;98197.66;;;17.84;61.06
59531;BME280;45349;48.692;8.186;2023-06-10T00:42:09;98197.06;;;17.82;62.13
59531;BME280;45349;48.692;8.186;2023-06-10T00:44:36;98189.38;;;17.74;61.73
59531;BME280;45349;48.692;8.186;2023-06-10T00:47:03;98188.97;;;17.70;62.41
59531;BME280;45349;48.692;8.186;2023-06-10T00:49:30;98187.34;;;17.69;62.72
59531;BME280;45349;48.692;8.186;2023-06-10T00:51:56;98183.31;;;17.60;62.87
59531;BME280;45349;48.692;8.186;2023-06-10T00:54:23;98191.84;;;17.55;62.95
59531;BME280;45349;48.692;8.186;2023-06-10T00:56:53;98188.22;;;17.49;63.30
59531;BME280;45349;48.692;8.186;2023-06-10T00:59:21;98187.63;;;17.47;64.24
59531;BME280;45349;48.692;8.186;2023-06-10T01:01:48;98188.84;;;17.38;64.34
59531;BME280;45349;48.692;8.186;2023-06-10T01:04:15;98191.91;;;17.28;64.11
59531;BME280;45349;48.692;8.186;2023-06-10T01:06:51;98184.59;;;17.23;64.45
59531;BME280;45349;48.692;8.186;2023-06-10T01:09:25;98194.97;;;17.25;64.45
59531;BME280;45349;48.692;8.186;2023-06-10T01:12:01;98181.97;;;17.23;64.59
59531;BME280;45349;48.692;8.186;2023-06-10T01:14:30;98181.16;;;17.23;64.65
59531;BME280;45349;48.692;8.186;2023-06-10T01:17:00;98188.66;;;17.33;64.72
59531;BME280;45349;48.692;8.186;2023-06-10T01:19:28;98180.34;;;17.43;63.26
59531;BME280;45349;48.692;8.186;2023-06-10T01:21:57;98179.50;;;17.49;63.18
59531;BME280;45349;48.692;8.186;2023-06-10T01:24:26;98178.31;;;17.45;64.19
59531;BME280;45349;48.692;8.186;2023-06-10T01:26:54;98178.91;;;17.47;63.90
59531;BME280;45349;48.692;8.186;2023-06-10T01:29:28;98174.63;;;17.52;63.57
59531;BME280;45349;48.692;8.186;2023-06-10T01:32:01;98180.28;;;17.56;63.19
59531;BME280;45349;48.692;8.186;2023-06-10T01:34:31;98185.50;;;17.69;63.15
59531;BME280;45349;48.692;8.186;2023-06-10T01:37:00;98182.88;;;17.69;62.17
59531;BME280;45349;48.692;8.186;2023-06-10T01:39:28;98184.72;;;17.69;62.16
59531;BME280;45349;48.692;8.186;2023-06-10T01:42:01;98194.41;;;17.82;61.11
59531;BME280;45349;48.692;8.186;2023-06-10T01:44:29;98190.56;;;17.84;61.11
59531;BME280;45349;48.692;8.186;2023-06-10T01:46:55;98193.56;;;17.95;60.93
59531;BME280;45349;48.692;8.186;2023-06-10T01:49:25;98189.91;;;17.96;61.37
59531;BME280;45349;48.692;8.186;2023-06-10T01:51:53;98196.81;;;17.97;61.09
59531;BME280;45349;48.692;8.186;2023-06-10T01:54:21;98198.06;;;18.01;61.21
59531;BME280;45349;48.692;8.186;2023-06-10T01:56:51;98196.44;;;18.00;61.90
59531;BME280;45349;48.692;8.186;2023-06-10T01:59:17;98196.44;;;18.00;61.22
59531;BME280;45349;48.692;8.186;2023-06-10T02:01:44;98201.69;;;17.93;61.54
59531;BME280;45349;48.692;8.186;2023-06-10T02:04:10;98198.88;;;17.88;62.00
59531;BME280;45349;48.692;8.186;2023-06-10T02:06:38;98196.44;;;17.87;61.99
59531;BME280;45349;48.692;8.186;2023-06-10T02:09:05;98194.22;;;17.83;62.28
59531;BME280;45349;48.692;8.186;2023-06-10T02:11:32;98195.84;;;17.84;61.85
59531;BME280;45349;48.692;8.186;2023-06-10T02:13:59;98205.56;;;17.91;61.89
59531;BME280;45349;48.692;8.186;2023-06-10T02:16:26;98198.25;;;17.93;61.73
59531;BME280;45349;48.692;8.186;2023-06-10T02:18:54;98207.00;;;18.00;60.99
59531;BME280;45349;48.692;8.186;2023-06-10T02:21:21;98201.88;;;18.05;60.76
59531;BME280;45349;48.692;8.186;2023-06-10T02:23:47;98203.66;;;18.11;60.50
59531;BME280;45349;48.692;8.186;2023-06-10T02:26:14;98200.00;;;18.12;60.93
59531;BME280;45349;48.692;8.186;2023-06-10T02:28:43;98207.31;;;18.10;60.73
59531;BME280;45349;48.692;8.186;2023-06-10T02:31:11;98200.84;;;18.06;61.09
59531;BME280;45349;48.692;8.186;2023-06-10T02:33:38;98204.91;;;18.02;62.16
59531;BME280;45349;48.692;8.186;2023-06-10T02:36:08;98203.09;;;18.03;62.08
59531;BME280;45349;48.692;8.186;2023-06-10T02:38:38;98204.75;;;17.97;62.24
59531;BME280;45349;48.692;8.186;2023-06-10T02:41:05;98205.94;;;17.94;61.99
59531;BME280;45349;48.692;8.186;2023-06-10T02:43:33;98209.63;;;18.00;62.30
59531;BME280;45349;48.692;8.186;2023-06-10T02:46:01;98216.13;;;17.91;62.23
59531;BME280;45349;48.692;8.186;2023-06-10T02:48:28;98212.47;;;17.85;62.85
59531;BME280;45349;48.692;8.186;2023-06-10T02:50:55;98210.66;;;17.79;63.07
59531;BME280;45349;48.692;8.186;2023-06-10T02:53:29;98215.38;;;17.70;63.54
59531;BME280;45349;48.692;8.186;2023-06-10T02:56:03;98216.41;;;17.62;65.17
59531;BME280;45349;48.692;8.186;2023-06-10T02:58:30;98216.63;;;17.47;66.14
59531;BME280;45349;48.692;8.186;2023-06-10T03:00:57;98228.22;;;17.33;66.99
59531;BME280;45349;48.692;8.186;2023-06-10T03:03:28;98218.91;;;17.17;67.89
59531;BME280;45349;48.692;8.186;2023-06-10T03:06:04;98219.72;;;16.97;68.65
59531;BME280;45349;48.692;8.186;2023-06-10T03:08:32;98222.31;;;16.83;70.00
59531;BME280;45349;48.692;8.186;2023-06-10T03:11:03;98222.69;;;16.67;69.85
59531;BME280;45349;48.692;8.186;2023-06-10T03:13:31;98220.44;;;16.57;70.92
59531;BME280;45349;48.692;8.186;2023-06-10T03:15:58;98224.50;;;16.53;71.35
59531;BME280;45349;48.692;8.186;2023-06-10T03:18:27;98229.75;;;16.53;72.30
59531;BME280;45349;48.692;8.186;2023-06-10T03:20:54;98233.38;;;16.45;71.95
59531;BME280;45349;48.692;8.186;2023-06-10T03:23:27;98233.97;;;16.41;72.14
59531;BME280;45349;48.692;8.186;2023-06-10T03:25:54;98238.25;;;16.35;72.67
59531;BME280;45349;48.692;8.186;2023-06-10T03:28:22;98231.13;;;16.29;73.96
59531;BME280;45349;48.692;8.186;2023-06-10T03:30:52;98237.78;;;16.25;74.98
59531;BME280;45349;48.692;8.186;2023-06-10T03:33:21;98236.97;;;16.17;74.78
59531;BME280;45349;48.692;8.186;2023-06-10T03:35:50;98238.53;;;16.12;75.53
59531;BME280;45349;48.692;8.186;2023-06-10T03:38:17;98230.84;;;16.10;75.52
59531;BME280;45349;48.692;8.186;2023-06-10T03:40:45;98240.31;;;16.04;75.44
59531;BME280;45349;48.692;8.186;2023-06-10T03:43:13;98238.09;;;16.01;75.86
59531;BME280;45349;48.692;8.186;2023-06-10T03:45:41;98240.94;;;16.00;76.44
59531;BME280;45349;48.692;8.186;2023-06-10T03:48:08;98243.75;;;15.98;75.50
59531;BME280;45349;48.692;8.186;2023-06-10T03:50:42;98244.34;;;16.00;75.26
59531;BME280;45349;48.692;8.186;2023-06-10T03:53:10;98251.09;;;16.09;75.03
59531;BME280;45349;48.692;8.186;2023-06-10T03:55:40;98249.28;;;16.17;74.95
59531;BME280;45349;48.692;8.186;2023-06-10T03:58:07;98252.13;;;16.15;75.34
59531;BME280;45349;48.692;8.186;2023-06-10T04:00:34;98254.56;;;16.17;75.80
59531;BME280;45349;48.692;8.186;2023-06-10T04:03:06;98256.78;;;16.13;77.40
59531;BME280;45349;48.692;8.186;2023-06-10T04:05:38;98255.34;;;16.11;76.84
59531;BME280;45349;48.692;8.186;2023-06-10T04:08:05;98253.53;;;16.11;77.11
59531;BME280;45349;48.692;8.186;2023-06-10T04:10:33;98254.34;;;16.12;77.07
59531;BME280;45349;48.692;8.186;2023-06-10T04:13:00;98255.34;;;16.11;78.71
59531;BME280;45349;48.692;8.186;2023-06-10T04:15:31;98255.56;;;16.09;78.32
59531;BME280;45349;48.692;8.186;2023-06-10T04:18:02;98247.44;;;16.11;78.76
59531;BME280;45349;48.692;8.186;2023-06-10T04:20:29;98262.06;;;16.13;77.26
59531;BME280;45349;48.692;8.186;2023-06-10T04:22:57;98265.31;;;16.15;78.16
59531;BME280;45349;48.692;8.186;2023-06-10T04:25:25;98275.84;;;16.15;78.43
59531;BME280;45349;48.692;8.186;2023-06-10T04:27:54;98269.13;;;16.13;79.58
59531;BME280;45349;48.692;8.186;2023-06-10T04:30:21;98267.94;;;16.15;80.97
59531;BME280;45349;48.692;8.186;2023-06-10T04:32:49;98266.69;;;16.11;81.69
59531;BME280;45349;48.692;8.186;2023-06-10T04:35:17;98273.81;;;16.17;83.22
59531;BME280;45349;48.692;8.186;2023-06-10T04:37:45;98266.09;;;16.16;82.37
59531;BME280;45349;48.692;8.186;2023-06-10T04:40:12;98270.97;;;16.12;82.18
59531;BME280;45349;48.692;8.186;2023-06-10T04:42:41;98272.38;;;16.15;82.14
59531;BME280;45349;48.692;8.186;2023-06-10T04:45:12;98278.06;;;16.18;83.02
59531;BME280;45349;48.692;8.186;2023-06-10T04:47:40;98279.31;;;16.29;80.75
59531;BME280;45349;48.692;8.186;2023-06-10T04:50:07;98281.00;;;16.37;80.81
59531;BME280;45349;48.692;8.186;2023-06-10T04:52:34;98282.41;;;16.40;80.91
59531;BME280;45349;48.692;8.186;2023-06-10T04:55:00;98278.75;;;16.41;81.64
59531;BME280;45349;48.692;8.186;2023-06-10T04:57:28;98278.97;;;16.39;82.65
59531;BME280;45349;48.692;8.186;2023-06-10T04:59:54;98282.81;;;16.43;82.79
59531;BME280;45349;48.692;8.186;2023-06-10T05:02:22;98286.47;;;16.42;82.73
59531;BME280;45349;48.692;8.186;2023-06-10T05:04:49;98288.69;;;16.45;83.02
59531;BME280;45349;48.692;8.186;2023-06-10T05:07:15;98290.94;;;16.48;81.87
59531;BME280;45349;48.692;8.186;2023-06-10T05:09:48;98294.19;;;16.44;83.07
59531;BME280;45349;48.692;8.186;2023-06-10T05:12:14;98291.34;;;16.45;82.99
59531;BME280;45349;48.692;8.186;2023-06-10T05:15:07;98290.13;;;16.41;83.34
59531;BME280;45349;48.692;8.186;2023-06-10T05:17:35;98297.03;;;16.42;83.59
59531;BME280;45349;48.692;8.186;2023-06-10T05:20:02;98301.69;;;16.40;84.29
59531;BME280;45349;48.692;8.186;2023-06-10T05:22:28;98298.19;;;16.33;85.78
59531;BME280;45349;48.692;8.186;2023-06-10T05:24:55;98304.69;;;16.37;84.48
59531;BME280;45349;48.692;8.186;2023-06-10T05:27:22;98294.97;;;16.37;86.31
59531;BME280;45349;48.692;8.186;2023-06-10T05:29:49;98295.97;;;16.36;86.70
59531;BME280;45349;48.692;8.186;2023-06-10T05:32:16;98294.78;;;16.39;87.00
59531;BME280;45349;48.692;8.186;2023-06-10T05:34:49;98298.63;;;16.43;88.27
59531;BME280;45349;48.692;8.186;2023-06-10T05:37:17;98310.81;;;16.51;88.53
59531;BME280;45349;48.692;8.186;2023-06-10T05:39:48;98303.00;;;16.78;87.82
59531;BME280;45349;48.692;8.186;2023-06-10T05:42:15;98301.06;;;17.20;85.82
59531;BME280;45349;48.692;8.186;2023-06-10T05:44:48;98311.63;;;17.61;82.80
59531;BME280;45349;48.692;8.186;2023-06-10T05:47:14;98306.28;;;17.94;79.51
59531;BME280;45349;48.692;8.186;2023-06-10T05:50:08;98309.09;;;18.20;78.41
59531;BME280;45349;48.692;8.186;2023-06-10T05:52:35;98304.53;;;18.47;76.37
59531;BME280;45349;48.692;8.186;2023-06-10T05:55:02;98310.97;;;18.58;74.77
59531;BME280;45349;48.692;8.186;2023-06-10T05:57:29;98311.88;;;18.77;72.23
59531;BME280;45349;48.692;8.186;2023-06-10T05:59:55;98312.06;;;18.82;71.67
59531;BME280;45349;48.692;8.186;2023-06-10T06:02:22;98308.81;;;18.87;72.58
59531;BME280;45349;48.692;8.186;2023-06-10T06:04:48;98315.84;;;19.07;72.57
59531;BME280;45349;48.692;8.186;2023-06-10T06:07:16;98315.28;;;19.23;72.15
59531;BME280;45349;48.692;8.186;2023-06-10T06:09:48;98320.06;;;19.40;71.53
59531;BME280;45349;48.692;8.186;2023-06-10T06:12:14;98328.06;;;19.58;71.21
59531;BME280;45349;48.692;8.186;2023-06-10T06:14:45;98320.19;;;19.70;70.32
59531;BME280;45349;48.692;8.186;2023-06-10T06:17:11;98330.75;;;19.77;69.72
59531;BME280;45349;48.692;8.186;2023-06-10T06:19:38;98325.38;;;19.84;67.50
59531;BME280;45349;48.692;8.186;2023-06-10T06:22:05;98329.22;;;19.88;66.27
59531;BME280;45349;48.692;8.186;2023-06-10T06:24:33;98329.78;;;19.97;66.72
59531;BME280;45349;48.692;8.186;2023-06-10T06:26:59;98334.50;;;20.13;66.11
59531;BME280;45349;48.692;8.186;2023-06-10T06:29:26;98334.28;;;20.33;65.66
59531;BME280;45349;48.692;8.186;2023-06-10T06:31:55;98333.88;;;20.48;65.20
59531;BME280;45349;48.692;8.186;2023-06-10T06:34:21;98337.91;;;20.70;66.20
59531;BME280;45349;48.692;8.186;2023-06-10T06:36:48;98330.63;;;20.84;65.85
59531;BME280;45349;48.692;8.186;2023-06-10T06:39:15;98328.38;;;20.99;65.41
59531;BME280;45349;48.692;8.186;2023-06-10T06:41:44;98330.69;;;21.07;62.54
59531;BME280;45349;48.692;8.186;2023-06-10T06:44:10;98327.78;;;20.97;63.63
59531;BME280;45349;48.692;8.186;2023-06-10T06:46:38;98337.97;;;21.12;62.98
59531;BME280;45349;48.692;8.186;2023-06-10T06:49:04;98342.50;;;21.23;62.12
59531;BME280;45349;48.692;8.186;2023-06-10T06:51:31;98341.59;;;21.30;60.41
59531;BME280;45349;48.692;8.186;2023-06-10T06:53:58;98336.53;;;21.40;59.15
59531;BME280;45349;48.692;8.186;2023-06-10T06:56:25;98339.28;;;21.33;59.11
59531;BME280;45349;48.692;8.186;2023-06-10T06:58:54;98341.84;;;21.40;59.71
59531;BME280;45349;48.692;8.186;2023-06-10T07:01:21;98333.88;;;21.40;59.27
59531;BME280;45349;48.692;8.186;2023-06-10T07:03:48;98341.38;;;21.43;62.12
59531;BME280;45349;48.692;8.186;2023-06-10T07:06:14;98339.56;;;21.56;60.25
59531;BME280;45349;48.692;8.186;2023-06-10T07:08:41;98335.88;;;21.68;60.13
59531;BME280;45349;48.692;8.186;2023-06-10T07:11:07;98339.25;;;21.76;61.41
59531;BME280;45349;48.692;8.186;2023-06-10T07:13:34;98343.97;;;21.97;60.37
59531;BME280;45349;48.692;8.186;2023-06-10T07:16:02;98338.88;;;22.08;60.07
59531;BME280;45349;48.692;8.186;2023-06-10T07:18:29;98341.53;;;22.20;57.31
59531;BME280;45349;48.692;8.186;2023-06-10T07:20:56;98336.78;;;22.22;57.32
59531;BME280;45349;48.692;8.186;2023-06-10T07:23:22;98335.16;;;22.21;58.03
59531;BME280;45349;48.692;8.186;2023-06-10T07:25:49;98346.94;;;22.25;60.09
59531;BME280;45349;48.692;8.186;2023-06-10T07:28:15;98333.84;;;22.47;57.88
59531;BME280;45349;48.692;8.186;2023-06-10T07:30:42;98345.53;;;22.34;57.95
59531;BME280;45349;48.692;8.186;2023-06-10T07:33:10;98340.88;;;22.53;60.76
59531;BME280;45349;48.692;8.186;2023-06-10T07:35:37;98336.53;;;22.76;57.50
59531;BME280;45349;48.692;8.186;2023-06-10T07:38:03;98343.66;;;22.88;58.68
59531;BME280;45349;48.692;8.186;2023-06-10T07:40:30;98344.16;;;23.02;54.10
59531;BME280;45349;48.692;8.186;2023-06-10T07:42:56;98335.88;;;23.15;52.42
59531;BME280;45349;48.692;8.186;2023-06-10T07:45:23;98345.22;;;23.29;53.32
59531;BME280;45349;48.692;8.186;2023-06-10T07:47:50;98348.03;;;23.23;54.57
59531;BME280;45349;48.692;8.186;2023-06-10T07:50:18;98345.50;;;23.33;54.05
59531;BME280;45349;48.692;8.186;2023-06-10T07:52:45;98336.56;;;23.39;53.99
59531;BME280;45349;48.692;8.186;2023-06-10T07:55:11;98334.41;;;23.53;53.39
59531;BME280;45349;48.692;8.186;2023-06-10T07:57:38;98330.59;;;23.66;53.16
59531;BME280;45349;48.692;8.186;2023-06-10T08:00:06;98342.66;;;23.91;53.47
59531;BME280;45349;48.692;8.186;2023-06-10T08:02:39;98346.56;;;24.00;54.74
59531;BME280;45349;48.692;8.186;2023-06-10T08:05:06;98344.53;;;24.08;53.62
59531;BME280;45349;48.692;8.186;2023-06-10T08:07:34;98347.00;;;24.14;53.30
59531;BME280;45349;48.692;8.186;2023-06-10T08:10:01;98353.09;;;24.32;52.65
59531;BME280;45349;48.692;8.186;2023-06-10T08:12:29;98351.66;;;24.46;50.02
59531;BME280;45349;48.692;8.186;2023-06-10T08:14:56;98352.72;;;24.45;49.68
59531;BME280;45349;48.692;8.186;2023-06-10T08:17:23;98344.66;;;24.40;51.79
59531;BME280;45349;48.692;8.186;2023-06-10T08:19:49;98347.56;;;24.39;52.56
59531;BME280;45349;48.692;8.186;2023-06-10T08:22:16;98351.59;;;24.64;50.75
59531;BME280;45349;48.692;8.186;2023-06-10T08:24:49;98343.72;;;24.74;50.44
59531;BME280;45349;48.692;8.186;2023-06-10T08:27:16;98344.78;;;25.00;48.50
59531;BME280;45349;48.692;8.186;2023-06-10T08:29:48;98335.00;;;25.11;49.79
59531;BME280;45349;48.692;8.186;2023-06-10T08:32:14;98335.34;;;25.20;46.77
59531;BME280;45349;48.692;8.186;2023-06-10T08:35:07;98335.75;;;25.34;44.80
59531;BME280;45349;48.692;8.186;2023-06-10T08:37:33;98339.91;;;25.19;41.98
59531;BME280;45349;48.692;8.186;2023-06-10T08:40:01;98342.97;;;25.06;41.83
59531;BME280;45349;48.692;8.186;2023-06-10T08:42:33;98334.78;;;25.18;41.48
59531;BME280;45349;48.692;8.186;2023-06-10T08:45:01;98335.34;;;25.20;41.52
59531;BME280;45349;48.692;8.186;2023-06-10T08:47:30;98336.41;;;25.19;41.68
59531;BME280;45349;48.692;8.186;2023-06-10T08:50:01;98351.81;;;25.39;42.13
59531;BME280;45349;48.692;8.186;2023-06-10T08:52:35;98340.16;;;25.50;40.20
59531;BME280;45349;48.692;8.186;2023-06-10T08:55:10;98338.59;;;25.55;40.18
59531;BME280;45349;48.692;8.186;2023-06-10T08:57:37;98347.66;;;25.54;39.87
59531;BME280;45349;48.692;8.186;2023-06-10T09:00:05;98332.97;;;25.51;39.80
59531;BME280;45349;48.692;8.186;2023-06-10T09:02:33;98340.50;;;25.59;39.76
59531;BME280;45349;48.692;8.186;2023-06-10T09:05:01;98334.88;;;25.61;39.56
59531;BME280;45349;48.692;8.186;2023-06-10T09:07:30;98325.78;;;25.57;40.14
59531;BME280;45349;48.692;8.186;2023-06-10T09:10:00;98316.84;;;25.84;40.66
59531;BME280;45349;48.692;8.186;2023-06-10T09:12:29;98321.75;;;25.97;39.76
59531;BME280;45349;48.692;8.186;2023-06-10T09:14:56;98326.81;;;25.93;38.56
59531;BME280;45349;48.692;8.186;2023-06-10T09:17:23;98329.75;;;25.97;39.25
59531;BME280;45349;48.692;8.186;2023-06-10T09:19:50;98329.53;;;26.09;39.05
59531;BME280;45349;48.692;8.186;2023-06-10T09:22:19;98323.84;;;26.43;39.17
59531;BME280;45349;48.692;8.186;2023-06-10T09:24:48;98316.13;;;26.67;38.17
59531;BME280;45349;48.692;8.186;2023-06-10T09:27:15;98316.75;;;26.95;37.79
59531;BME280;45349;48.692;8.186;2023-06-10T09:30:09;98318.91;;;27.14;36.67
59531;BME280;45349;48.692;8.186;2023-06-10T09:32:38;98318.91;;;27.09;36.88
59531;BME280;45349;48.692;8.186;2023-06-10T09:35:09;98317.81;;;26.94;36.99
59531;BME280;45349;48.692;8.186;2023-06-10T09:37:38;98313.28;;;27.31;37.09
59531;BME280;45349;48.692;8.186;2023-06-10T09:40:07;98313.56;;;27.55;36.53
59531;BME280;45349;48.692;8.186;2023-06-10T09:42:37;98311.66;;;27.72;37.62
59531;BME280;45349;48.692;8.186;2023-06-10T09:45:06;98318.38;;;27.38;36.02
59531;BME280;45349;48.692;8.186;2023-06-10T09:47:34;98316.13;;;26.73;37.20
59531;BME280;45349;48.692;8.186;2023-06-10T09:50:01;98310.00;;;26.72;37.84
59531;BME280;45349;48.692;8.186;2023-06-10T09:52:29;98300.56;;;26.54;39.01
59531;BME280;45349;48.692;8.186;2023-06-10T09:54:59;98304.88;;;26.65;38.76
59531;BME280;45349;48.692;8.186;2023-06-10T09:57:31;98307.63;;;26.91;37.90
59531;BME280;45349;48.692;8.186;2023-06-10T09:59:59;98308.72;;;27.47;37.51
59531;BME280;45349;48.692;8.186;2023-06-10T10:02:44;98308.94;;;27.87;36.89
59531;BME280;45349;48.692;8.186;2023-06-10T10:05:13;98308.75;;;27.52;35.50
59531;BME280;45349;48.692;8.186;2023-06-10T10:07:40;98301.47;;;27.58;35.34
59531;BME280;45349;48.692;8.186;2023-06-10T10:10:07;98298.53;;;27.08;36.09
59531;BME280;45349;48.692;8.186;2023-06-10T10:12:35;98296.66;;;26.83;36.14
59531;BME280;45349;48.692;8.186;2023-06-10T10:15:03;98306.31;;;26.99;37.66
59531;BME280;45349;48.692;8.186;2023-06-10T10:17:34;98302.28;;;27.43;35.40
59531;BME280;45349;48.692;8.186;2023-06-10T10:20:03;98306.31;;;27.35;36.75
59531;BME280;45349;48.692;8.186;2023-06-10T10:22:34;98304.16;;;27.43;35.59
59531;BME280;45349;48.692;8.186;2023-06-10T10:25:02;98299.63;;;27.33;36.75
59531;BME280;45349;48.692;8.186;2023-06-10T10:27:36;98300.41;;;27.13;35.94
59531;BME280;45349;48.692;8.186;2023-06-10T10:30:11;98305.50;;;27.09;36.85
59531;BME280;45349;48.692;8.186;2023-06-10T10:32:42;98306.56;;;26.98;36.71
59531;BME280;45349;48.692;8.186;2023-06-10T10:35:17;98309.81;;;27.15;36.18
59531;BME280;45349;48.692;8.186;2023-06-10T10:37:44;98308.19;;;27.55;35.67
59531;BME280;45349;48.692;8.186;2023-06-10T10:40:12;98307.84;;;27.93;35.81
59531;BME280;45349;48.692;8.186;2023-06-10T10:42:40;98306.41;;;28.27;34.16
59531;BME280;45349;48.692;8.186;2023-06-10T10:45:09;98302.56;;;28.43;36.71
59531;BME280;45349;48.692;8.186;2023-06-10T10:47:36;98296.50;;;28.67;35.11
59531;BME280;45349;48.692;8.186;2023-06-10T10:50:13;98310.19;;;28.76;34.38
59531;BME280;45349;48.692;8.186;2023-06-10T10:52:53;98285.78;;;28.62;33.18
59531;BME280;45349;48.692;8.186;2023-06-10T10:55:20;98304.03;;;28.65;33.63
59531;BME280;45349;48.692;8.186;2023-06-10T10:57:54;98299.41;;;28.31;33.99
59531;BME280;45349;48.692;8.186;2023-06-10T11:00:28;98301.25;;;28.36;34.15
59531;BME280;45349;48.692;8.186;2023-06-10T11:02:58;98297.22;;;28.38;33.98
59531;BME280;45349;48.692;8.186;2023-06-10T11:05:32;98306.34;;;28.37;33.52
59531;BME280;45349;48.692;8.186;2023-06-10T11:08:03;98288.00;;;27.89;34.79
59531;BME280;45349;48.692;8.186;2023-06-10T11:10:31;98295.81;;;27.75;35.60
59531;BME280;45349;48.692;8.186;2023-06-10T11:12:58;98301.13;;;27.91;34.39
59531;BME280;45349;48.692;8.186;2023-06-10T11:15:26;98288.72;;;28.16;35.33
59531;BME280;45349;48.692;8.186;2023-06-10T11:18:10;98290.00;;;28.28;34.81
59531;BME280;45349;48.692;8.186;2023-06-10T11:20:45;98284.25;;;28.56;35.82
59531;BME280;45349;48.692;8.186;2023-06-10T11:23:29;98287.84;;;28.31;34.19
59531;BME280;45349;48.692;8.186;2023-06-10T11:26:16;98296.19;;;28.79;35.03
59531;BME280;45349;48.692;8.186;2023-06-10T11:31:44;98293.34;;;28.60;33.50
59531;BME280;45349;48.692;8.186;2023-06-10T11:34:13;98292.34;;;28.46;33.09
59531;BME280;45349;48.692;8.186;2023-06-10T11:36:41;98284.38;;;28.30;33.64
59531;BME280;45349;48.692;8.186;2023-06-10T11:39:12;98288.44;;;28.67;33.35
59531;BME280;45349;48.692;8.186;2023-06-10T11:41:39;98280.03;;;28.84;33.93
59531;BME280;45349;48.692;8.186;2023-06-10T11:44:10;98282.16;;;29.22;33.85
59531;BME280;45349;48.692;8.186;2023-06-10T11:46:37;98285.31;;;29.29;34.21
59531;BME280;45349;48.692;8.186;2023-06-10T11:49:05;98280.47;;;29.31;34.60
59531;BME280;45349;48.692;8.186;2023-06-10T11:51:34;98282.09;;;28.58;33.91
59531;BME280;45349;48.692;8.186;2023-06-10T11:54:02;98287.53;;;28.42;35.03
59531;BME280;45349;48.692;8.186;2023-06-10T11:56:30;98284.59;;;28.39;35.96
59531;BME280;45349;48.692;8.186;2023-06-10T11:58:59;98278.63;;;28.52;35.62
59531;BME280;45349;48.692;8.186;2023-06-10T12:01:29;98284.41;;;28.70;35.12
59531;BME280;45349;48.692;8.186;2023-06-10T12:03:58;98284.94;;;28.77;36.80
59531;BME280;45349;48.692;8.186;2023-06-10T12:06:25;98284.50;;;28.54;34.72
59531;BME280;45349;48.692;8.186;2023-06-10T12:08:53;98284.81;;;28.48;34.53
59531;BME280;45349;48.692;8.186;2023-06-10T12:11:20;98283.84;;;28.73;35.71
59531;BME280;45349;48.692;8.186;2023-06-10T12:13:49;98278.25;;;29.09;34.50
59531;BME280;45349;48.692;8.186;2023-06-10T12:16:17;98267.72;;;29.13;32.71
59531;BME280;45349;48.692;8.186;2023-06-10T12:18:45;98281.28;;;28.97;34.25
59531;BME280;45349;48.692;8.186;2023-06-10T12:21:20;98284.31;;;28.91;36.74
59531;BME280;45349;48.692;8.186;2023-06-10T12:24:08;98274.22;;;29.07;34.37
59531;BME280;45349;48.692;8.186;2023-06-10T12:26:39;98273.53;;;28.96;33.18
59531;BME280;45349;48.692;8.186;2023-06-10T12:29:17;98270.44;;;28.73;33.93
59531;BME280;45349;48.692;8.186;2023-06-10T12:31:58;98267.31;;;28.95;33.63
59531;BME280;45349;48.692;8.186;2023-06-10T12:34:36;98270.16;;;28.69;34.29
59531;BME280;45349;48.692;8.186;2023-06-10T12:37:05;98272.53;;;28.81;36.09
59531;BME280;45349;48.692;8.186;2023-06-10T12:39:32;98281.47;;;29.11;33.95
59531;BME280;45349;48.692;8.186;2023-06-10T12:41:59;98268.47;;;29.53;31.41
59531;BME280;45349;48.692;8.186;2023-06-10T12:44:35;98280.66;;;29.94;32.20
59531;BME280;45349;48.692;8.186;2023-06-10T12:47:07;98277.66;;;30.20;31.27
59531;BME280;45349;48.692;8.186;2023-06-10T12:49:35;98272.44;;;29.80;31.96
59531;BME280;45349;48.692;8.186;2023-06-10T12:52:02;98284.28;;;29.55;32.65
59531;BME280;45349;48.692;8.186;2023-06-10T12:54:28;98277.91;;;29.16;33.05
59531;BME280;45349;48.692;8.186;2023-06-10T12:56:55;98280.09;;;28.79;33.34
59531;BME280;45349;48.692;8.186;2023-06-10T12:59:22;98276.31;;;28.80;32.87
59531;BME280;45349;48.692;8.186;2023-06-10T13:01:54;98283.34;;;28.71;34.87
59531;BME280;45349;48.692;8.186;2023-06-10T13:04:21;98277.28;;;28.95;34.91
59531;BME280;45349;48.692;8.186;2023-06-10T13:06:48;98280.31;;;29.17;32.90
59531;BME280;45349;48.692;8.186;2023-06-10T13:09:15;98274.09;;;29.52;32.47
59531;BME280;45349;48.692;8.186;2023-06-10T13:11:42;98262.91;;;29.93;32.20